Time;durP1;ratioP1;P1;durP2;ratioP2;P2;SDS_P1;SDS_P2;PMS_P1;PMS_P2;Temp;Humidity;BMP_temperature;BMP_pressure;BME280_temperature;BME280_humidity;BME280_pressure;Samples;Min_cycle;Max_cycle;Signal;HPM_P1;HPM_P2
2023/03/17 00:01:53;;;;;;;16.97;10.03;;;29.30;38.60;;;;;;4990750;28;20182;-67
2023/03/17 00:04:21;;;;;;;13.70;10.10;;;29.40;38.80;;;;;;4988758;28;20226;-77
2023/03/17 00:06:48;;;;;;;18.60;10.43;;;29.40;38.80;;;;;;4995871;28;20651;-70
2023/03/17 00:09:17;;;;;;;16.50;10.30;;;29.50;38.90;;;;;;4996809;28;20201;-72
2023/03/17 00:11:46;;;;;;;16.10;10.47;;;29.50;38.60;;;;;;5012277;28;20180;-74
2023/03/17 00:14:13;;;;;;;17.00;10.33;;;29.70;38.30;;;;;;4996283;28;20249;-67
2023/03/17 00:16:44;;;;;;;16.30;10.13;;;29.60;38.10;;;;;;4989538;28;20201;-69
2023/03/17 00:19:16;;;;;;;20.03;10.27;;;29.50;38.00;;;;;;4983802;28;20317;-72
2023/03/17 00:21:44;;;;;;;14.47;10.00;;;29.80;37.80;;;;;;4988308;28;20173;-70
2023/03/17 00:24:12;;;;;;;15.67;9.20;;;29.80;37.50;;;;;;4982575;28;20226;-66
2023/03/17 00:26:41;;;;;;;16.40;9.53;;;29.80;36.80;;;;;;4999920;28;20190;-68
2023/03/17 00:29:08;;;;;;;14.17;8.90;;;29.70;36.70;;;;;;4985613;28;20222;-69
2023/03/17 00:31:36;;;;;;;15.80;9.13;;;30.00;36.70;;;;;;4991880;28;20178;-65
2023/03/17 00:34:04;;;;;;;12.40;8.67;;;30.10;35.90;;;;;;4985471;28;20190;-66
2023/03/17 00:36:33;;;;;;;15.10;8.90;;;30.30;36.50;;;;;;4987504;28;20280;-70
2023/03/17 00:39:00;;;;;;;15.03;9.80;;;30.30;35.70;;;;;;4990272;28;21553;-76
2023/03/17 00:41:28;;;;;;;14.35;8.60;;;30.30;35.80;;;;;;4987652;28;20554;-75
2023/03/17 00:43:56;;;;;;;17.47;8.80;;;30.60;36.00;;;;;;4997558;28;20555;-70
2023/03/17 00:46:37;;;;;;;17.90;8.83;;;30.70;35.90;;;;;;4997058;28;20185;-71
2023/03/17 00:49:17;;;;;;;16.98;8.57;;;30.80;34.90;;;;;;4989179;28;20198;-74
2023/03/17 00:51:45;;;;;;;16.10;8.20;;;30.90;35.80;;;;;;5002839;28;20189;-76
2023/03/17 00:54:14;;;;;;;14.55;8.68;;;31.10;35.10;;;;;;4988928;28;20186;-72
2023/03/17 00:56:43;;;;;;;12.77;7.47;;;31.30;35.00;;;;;;4994849;28;20197;-70
2023/03/17 00:59:30;;;;;;;12.77;7.97;;;31.10;34.50;;;;;;4992993;28;20193;-71
2023/03/17 01:01:58;;;;;;;13.38;8.30;;;30.90;34.90;;;;;;4986062;28;20198;-76
2023/03/17 01:04:25;;;;;;;11.65;7.68;;;30.80;35.30;;;;;;4992776;28;20198;-65
2023/03/17 01:06:53;;;;;;;12.45;7.53;;;31.20;34.90;;;;;;4990974;28;20201;-67
2023/03/17 01:09:25;;;;;;;15.43;7.60;;;31.20;34.20;;;;;;4993116;28;20189;-66
2023/03/17 01:11:54;;;;;;;8.48;6.40;;;31.20;34.80;;;;;;4988282;28;20174;-67
2023/03/17 01:14:23;;;;;;;7.28;4.63;;;31.60;35.80;;;;;;4995550;28;20230;-68
2023/03/17 01:16:54;;;;;;;9.27;4.68;;;31.80;35.90;;;;;;4987216;28;20193;-71
2023/03/17 01:19:21;;;;;;;7.20;4.53;;;31.80;35.30;;;;;;4995896;28;20260;-69
2023/03/17 01:21:49;;;;;;;8.13;3.25;;;31.80;35.30;;;;;;4988221;28;20194;-72
2023/03/17 01:24:16;;;;;;;7.30;3.22;;;32.10;35.30;;;;;;4991757;28;20241;-66
2023/03/17 01:26:43;;;;;;;8.07;4.15;;;32.20;35.90;;;;;;4987808;28;20719;-66
2023/03/17 01:29:11;;;;;;;7.82;3.03;;;32.30;34.70;;;;;;4989689;28;20197;-69
2023/03/17 01:31:38;;;;;;;9.88;2.90;;;32.40;34.80;;;;;;4989614;28;20209;-65
2023/03/17 01:34:06;;;;;;;8.95;2.80;;;32.40;34.70;;;;;;4992222;28;20590;-67
2023/03/17 01:36:34;;;;;;;5.47;2.22;;;32.30;34.40;;;;;;4997937;28;20719;-68
2023/03/17 01:39:04;;;;;;;4.50;2.38;;;32.20;34.80;;;;;;4996694;28;20181;-66
2023/03/17 01:41:36;;;;;;;4.93;1.77;;;32.30;34.60;;;;;;4985333;28;20212;-65
2023/03/17 01:44:04;;;;;;;6.20;2.33;;;32.10;34.30;;;;;;4998370;28;20217;-66
2023/03/17 01:46:35;;;;;;;7.00;2.22;;;32.30;34.50;;;;;;4990530;28;20195;-69
2023/03/17 01:49:41;;;;;;;5.47;1.30;;;32.40;34.40;;;;;;4994859;28;20181;-66
2023/03/17 01:52:11;;;;;;;5.45;1.67;;;32.60;33.60;;;;;;4982155;28;20189;-70
2023/03/17 01:55:02;;;;;;;5.18;1.48;;;32.60;33.60;;;;;;4993281;28;20275;-70
2023/03/17 01:57:35;;;;;;;3.08;1.10;;;32.40;33.90;;;;;;4991265;28;20547;-68
2023/03/17 02:00:16;;;;;;;3.08;1.48;;;32.10;35.50;;;;;;4993977;28;20649;-68
2023/03/17 02:02:47;;;;;;;6.00;1.50;;;31.90;36.70;;;;;;4990883;28;20711;-67
2023/03/17 02:05:17;;;;;;;5.97;1.42;;;32.20;38.00;;;;;;4988651;28;20538;-67
2023/03/17 02:07:45;;;;;;;6.53;1.60;;;32.20;39.90;;;;;;4991329;28;20284;-67
2023/03/17 02:10:16;;;;;;;5.30;1.80;;;32.00;41.30;;;;;;4995959;28;20537;-65
2023/03/17 02:12:45;;;;;;;6.57;2.10;;;31.50;43.10;;;;;;4993669;28;20313;-66
2023/03/17 02:15:14;;;;;;;4.50;1.70;;;31.30;43.70;;;;;;4994455;28;20170;-67
2023/03/17 02:17:41;;;;;;;6.65;2.22;;;31.00;44.20;;;;;;4993430;28;20228;-65
2023/03/17 02:20:15;;;;;;;9.63;1.73;;;31.30;42.60;;;;;;5009063;28;20169;-66
2023/03/17 02:22:45;;;;;;;10.77;1.92;;;31.00;42.00;;;;;;5004846;28;20217;-66
2023/03/17 02:25:13;;;;;;;6.07;2.22;;;30.90;40.90;;;;;;5013450;28;20643;-66
2023/03/17 02:27:47;;;;;;;8.50;2.40;;;30.80;41.20;;;;;;5013197;28;20182;-65
2023/03/17 02:30:22;;;;;;;6.35;1.80;;;30.80;41.10;;;;;;5013121;28;20189;-66
2023/03/17 02:32:50;;;;;;;6.43;1.55;;;31.00;41.20;;;;;;4992984;28;20217;-65
2023/03/17 02:35:19;;;;;;;6.43;2.17;;;31.20;41.10;;;;;;5008250;28;20177;-66
2023/03/17 02:37:46;;;;;;;9.88;2.35;;;31.40;40.90;;;;;;5005990;28;20676;-66
2023/03/17 02:40:15;;;;;;;7.60;1.63;;;31.50;40.40;;;;;;5003392;28;20182;-68
2023/03/17 02:42:43;;;;;;;4.70;1.60;;;31.30;41.40;;;;;;5012886;28;20204;-67
2023/03/17 02:45:12;;;;;;;12.40;2.90;;;31.40;41.60;;;;;;5012697;28;20209;-65
2023/03/17 02:47:43;;;;;;;6.18;2.17;;;31.30;41.80;;;;;;5012822;28;20189;-67
2023/03/17 02:50:23;;;;;;;5.85;1.90;;;31.20;41.90;;;;;;5012919;28;20619;-66
2023/03/17 02:52:51;;;;;;;6.68;1.75;;;31.40;41.90;;;;;;5012995;28;20546;-65
2023/03/17 02:55:19;;;;;;;6.50;2.00;;;31.30;42.50;;;;;;5013019;28;20715;-67
2023/03/17 02:57:46;;;;;;;11.40;2.75;;;31.60;42.50;;;;;;5012947;28;20632;-68
2023/03/17 03:00:14;;;;;;;11.13;2.63;;;31.70;42.90;;;;;;5012814;28;20176;-67
2023/03/17 03:02:41;;;;;;;8.85;2.40;;;32.00;43.00;;;;;;5012745;28;20699;-68
2023/03/17 03:05:09;;;;;;;9.15;2.47;;;32.10;43.70;;;;;;5012914;28;20659;-70
2023/03/17 03:07:36;;;;;;;9.90;2.25;;;32.30;43.90;;;;;;5012768;28;20197;-68
2023/03/17 03:10:04;;;;;;;7.45;2.20;;;32.30;43.70;;;;;;5012967;28;20177;-67
2023/03/17 03:12:32;;;;;;;11.48;2.10;;;32.70;42.70;;;;;;5012768;28;20208;-73
2023/03/17 03:14:59;;;;;;;7.55;2.20;;;32.70;42.60;;;;;;5012819;28;20189;-68
2023/03/17 03:17:26;;;;;;;8.50;2.35;;;32.40;42.60;;;;;;5012331;28;20173;-68
2023/03/17 03:19:54;;;;;;;7.38;2.05;;;32.30;43.80;;;;;;5007580;28;20276;-70
2023/03/17 03:22:21;;;;;;;9.57;2.08;;;32.60;43.60;;;;;;4999347;28;20537;-73
2023/03/17 03:24:48;;;;;;;7.43;2.22;;;32.80;44.20;;;;;;5012491;28;20260;-66
2023/03/17 03:27:16;;;;;;;8.10;2.38;;;32.30;46.20;;;;;;5012598;28;20169;-66
2023/03/17 03:29:43;;;;;;;8.93;2.25;;;32.10;47.70;;;;;;5012453;28;20173;-72
2023/03/17 03:32:11;;;;;;;10.80;2.42;;;32.00;49.30;;;;;;5012272;28;20192;-70
2023/03/17 03:34:38;;;;;;;7.43;2.47;;;32.00;49.80;;;;;;5012194;28;20219;-74
2023/03/17 03:37:06;;;;;;;10.70;2.88;;;32.20;50.00;;;;;;5012406;28;20197;-75
2023/03/17 03:39:34;;;;;;;7.78;2.58;;;32.10;49.80;;;;;;5011658;28;20173;-68
2023/03/17 03:42:01;;;;;;;8.63;2.40;;;31.10;51.10;;;;;;5012261;28;20476;-70
2023/03/17 03:44:29;;;;;;;6.75;2.40;;;30.40;53.40;;;;;;5012114;28;20205;-70
2023/03/17 03:46:56;;;;;;;7.85;2.45;;;30.70;52.60;;;;;;5012245;28;20641;-69
2023/03/17 03:49:23;;;;;;;11.35;2.60;;;30.70;52.30;;;;;;5012012;28;20185;-70
2023/03/17 03:51:51;;;;;;;9.70;2.30;;;31.10;51.60;;;;;;5011683;28;20531;-73
2023/03/17 03:54:18;;;;;;;7.13;2.45;;;31.30;50.50;;;;;;5011938;28;20652;-67
2023/03/17 03:56:45;;;;;;;9.15;2.33;;;31.50;49.70;;;;;;5011224;28;20221;-67
2023/03/17 03:59:13;;;;;;;7.50;2.42;;;31.80;48.70;;;;;;5011620;28;20252;-73
2023/03/17 04:01:41;;;;;;;10.07;2.38;;;31.70;49.10;;;;;;5010641;28;20189;-67
2023/03/17 04:04:09;;;;;;;5.20;1.95;;;30.30;51.70;;;;;;5011038;28;20300;-71
2023/03/17 04:06:36;;;;;;;9.20;2.38;;;29.80;53.40;;;;;;5010484;28;20669;-66
2023/03/17 04:09:03;;;;;;;8.35;2.35;;;30.30;51.60;;;;;;5011472;28;20196;-66
2023/03/17 04:11:31;;;;;;;9.77;2.22;;;30.80;50.60;;;;;;4993720;28;20670;-67
2023/03/17 04:13:58;;;;;;;8.10;2.10;;;31.30;50.00;;;;;;5001476;28;20288;-67
2023/03/17 04:16:26;;;;;;;10.63;2.20;;;31.20;50.60;;;;;;4993749;28;20237;-69
2023/03/17 04:18:53;;;;;;;8.48;2.20;;;30.60;51.50;;;;;;5014542;28;20482;-66
2023/03/17 04:21:20;;;;;;;10.43;2.22;;;30.70;51.10;;;;;;5007042;28;20264;-69
2023/03/17 04:23:48;;;;;;;10.27;2.35;;;30.60;51.40;;;;;;5004842;28;20613;-67
2023/03/17 04:26:17;;;;;;;6.97;2.10;;;31.10;50.90;;;;;;5009974;28;20283;-65
2023/03/17 04:28:45;;;;;;;9.90;2.67;;;30.90;50.50;;;;;;5004499;28;20173;-66
2023/03/17 04:31:12;;;;;;;9.27;2.45;;;30.60;51.40;;;;;;5010836;28;20648;-67
2023/03/17 04:33:39;;;;;;;7.40;1.83;;;29.40;54.10;;;;;;5011062;28;20267;-69
2023/03/17 04:36:08;;;;;;;9.73;2.10;;;29.40;54.10;;;;;;5013158;28;20185;-67
2023/03/17 04:38:35;;;;;;;5.57;2.30;;;30.30;52.70;;;;;;5008773;28;20261;-65
2023/03/17 04:41:02;;;;;;;7.63;2.00;;;30.90;51.50;;;;;;5014783;28;20205;-67
2023/03/17 04:43:30;;;;;;;7.78;2.22;;;31.30;50.90;;;;;;5014991;28;20242;-67
2023/03/17 04:45:57;;;;;;;9.63;2.13;;;30.20;53.70;;;;;;5003755;28;20269;-65
2023/03/17 04:48:24;;;;;;;8.02;2.17;;;30.30;53.50;;;;;;5007300;28;20269;-65
2023/03/17 04:50:51;;;;;;;8.05;2.20;;;29.90;54.80;;;;;;5014595;28;20178;-65
2023/03/17 04:53:19;;;;;;;8.27;2.33;;;29.30;56.30;;;;;;5010741;28;20182;-67
2023/03/17 04:55:46;;;;;;;8.73;2.38;;;29.40;55.80;;;;;;5000594;28;20180;-66
2023/03/17 04:58:13;;;;;;;11.90;2.70;;;29.80;54.70;;;;;;4997698;28;20190;-66
2023/03/17 05:00:41;;;;;;;11.00;2.65;;;30.10;53.60;;;;;;5002621;28;20674;-67
2023/03/17 05:03:08;;;;;;;9.13;2.22;;;30.70;52.50;;;;;;5013288;28;20699;-67
2023/03/17 05:05:36;;;;;;;7.88;2.22;;;30.30;53.70;;;;;;5015066;28;20180;-68
2023/03/17 05:08:03;;;;;;;5.60;2.00;;;29.60;55.40;;;;;;4994767;28;20319;-65
2023/03/17 05:10:31;;;;;;;9.55;2.22;;;29.80;55.30;;;;;;4985614;28;20182;-67
2023/03/17 05:12:58;;;;;;;8.40;2.42;;;30.10;55.30;;;;;;5002999;28;20639;-69
2023/03/17 05:15:25;;;;;;;7.07;2.33;;;30.00;54.60;;;;;;5013779;28;20175;-66
2023/03/17 05:17:53;;;;;;;10.27;2.10;;;29.10;57.00;;;;;;4978797;28;20190;-69
2023/03/17 05:20:20;;;;;;;6.57;2.13;;;28.40;58.90;;;;;;4986247;28;20676;-66
2023/03/17 05:22:47;;;;;;;6.18;2.10;;;28.20;59.40;;;;;;4994222;28;20205;-66
2023/03/17 05:25:15;;;;;;;10.67;1.97;;;27.90;59.90;;;;;;4991929;28;20699;-69
2023/03/17 05:27:43;;;;;;;8.77;2.17;;;27.30;61.90;;;;;;5013427;28;20212;-66
2023/03/17 05:30:10;;;;;;;12.17;2.33;;;27.20;62.20;;;;;;5014753;28;20697;-66
2023/03/17 05:32:39;;;;;;;5.00;2.03;;;27.20;62.60;;;;;;5014341;28;20256;-66
2023/03/17 05:35:06;;;;;;;12.83;2.23;;;27.70;61.60;;;;;;5014784;28;20193;-69
2023/03/17 05:37:34;;;;;;;10.83;2.43;;;27.60;61.20;;;;;;5001111;28;20173;-66
2023/03/17 05:40:01;;;;;;;7.17;2.43;;;27.40;61.60;;;;;;4993436;28;20181;-72
2023/03/17 05:42:29;;;;;;;18.07;2.77;;;27.40;62.10;;;;;;4994565;28;20178;-67
2023/03/17 05:44:56;;;;;;;9.90;1.90;;;27.30;62.50;;;;;;5008443;28;20636;-65
2023/03/17 05:47:24;;;;;;;7.47;1.83;;;28.30;59.20;;;;;;5007013;28;20178;-67
2023/03/17 05:49:51;;;;;;;6.30;1.83;;;28.30;59.90;;;;;;5013839;28;20182;-67
2023/03/17 05:52:18;;;;;;;7.82;1.67;;;29.30;56.10;;;;;;5013810;28;20272;-67
2023/03/17 05:54:47;;;;;;;9.15;2.05;;;29.70;54.60;;;;;;5001691;28;20663;-67
2023/03/17 05:57:15;;;;;;;15.23;2.55;;;29.10;56.10;;;;;;5013552;28;20181;-66
2023/03/17 05:59:43;;;;;;;9.57;2.83;;;28.50;58.20;;;;;;5013660;28;20185;-67
2023/03/17 06:02:11;;;;;;;7.20;2.30;;;27.70;59.90;;;;;;5013768;28;20212;-65
2023/03/17 06:04:38;;;;;;;8.40;2.13;;;27.20;61.90;;;;;;4999464;28;20336;-66
2023/03/17 06:07:06;;;;;;;8.23;2.33;;;27.30;62.00;;;;;;4998222;28;20186;-68
2023/03/17 06:09:33;;;;;;;11.50;2.40;;;28.20;60.00;;;;;;4991917;28;20189;-67
2023/03/17 06:12:01;;;;;;;9.67;2.47;;;27.80;60.30;;;;;;4988756;28;20190;-69
2023/03/17 06:14:28;;;;;;;9.80;2.80;;;28.30;59.50;;;;;;4996733;28;20233;-68
2023/03/17 06:16:57;;;;;;;12.45;2.50;;;29.40;56.30;;;;;;4992311;28;20535;-70
2023/03/17 06:19:25;;;;;;;10.00;2.47;;;29.80;54.80;;;;;;4998916;28;20680;-69
2023/03/17 06:21:52;;;;;;;9.63;2.53;;;29.60;55.60;;;;;;4987974;28;20186;-68
2023/03/17 06:24:20;;;;;;;8.15;2.35;;;30.30;54.20;;;;;;4986563;28;20280;-74
2023/03/17 06:26:47;;;;;;;7.88;2.17;;;29.30;56.20;;;;;;4991921;28;20178;-71
2023/03/17 06:29:15;;;;;;;8.95;2.20;;;28.30;59.20;;;;;;4993092;28;20178;-75
2023/03/17 06:31:49;;;;;;;9.73;2.40;;;27.70;61.00;;;;;;4972673;28;20214;-68
2023/03/17 06:34:17;;;;;;;6.93;2.60;;;27.30;62.40;;;;;;4980370;28;20201;-74
2023/03/17 06:36:45;;;;;;;12.83;2.53;;;27.10;63.50;;;;;;4984790;28;20184;-68
2023/03/17 06:39:13;;;;;;;11.83;2.47;;;26.90;63.90;;;;;;4992044;28;20178;-68
2023/03/17 06:41:40;;;;;;;10.27;2.60;;;26.80;64.00;;;;;;4975687;28;20178;-68
2023/03/17 06:44:08;;;;;;;11.00;2.63;;;26.90;64.10;;;;;;4980487;28;20209;-70
2023/03/17 06:46:36;;;;;;;15.47;2.90;;;26.80;64.80;;;;;;4992160;28;20185;-71
2023/03/17 06:49:04;;;;;;;13.13;3.23;;;26.90;64.30;;;;;;4988084;28;20248;-68
2023/03/17 06:51:32;;;;;;;12.60;2.20;;;26.80;64.70;;;;;;4987722;28;21110;-67
2023/03/17 06:53:59;;;;;;;10.63;2.87;;;26.50;65.10;;;;;;4991324;28;20209;-76
2023/03/17 06:56:26;;;;;;;9.13;1.97;;;26.60;65.70;;;;;;4992509;28;20178;-67
2023/03/17 06:58:54;;;;;;;10.97;3.03;;;26.40;65.70;;;;;;4974859;28;20174;-71
2023/03/17 07:01:22;;;;;;;9.50;2.77;;;26.30;66.30;;;;;;4992294;28;20186;-70
2023/03/17 07:03:49;;;;;;;8.03;2.30;;;26.10;67.50;;;;;;4985364;28;20230;-72
2023/03/17 07:06:16;;;;;;;12.43;3.00;;;26.00;67.80;;;;;;4995453;28;20551;-69
2023/03/17 07:08:45;;;;;;;11.17;2.60;;;25.90;67.60;;;;;;5004049;28;20178;-69
2023/03/17 07:11:13;;;;;;;14.13;3.00;;;25.80;68.10;;;;;;5009431;28;20197;-70
2023/03/17 07:13:40;;;;;;;12.47;3.50;;;25.80;68.50;;;;;;4992082;28;20241;-73
2023/03/17 07:16:10;;;;;;;14.00;4.23;;;25.90;68.30;;;;;;4999180;28;20200;-72
2023/03/17 07:18:38;;;;;;;13.37;7.40;;;26.00;68.20;;;;;;5005730;28;20193;-71
2023/03/17 07:21:05;;;;;;;12.20;3.20;;;25.90;67.90;;;;;;4991114;28;20186;-74
2023/03/17 07:23:33;;;;;;;11.53;2.70;;;25.90;67.90;;;;;;4993515;28;20230;-77
2023/03/17 07:26:01;;;;;;;10.43;2.77;;;25.80;68.60;;;;;;5001291;28;20176;-75
2023/03/17 07:28:29;;;;;;;10.60;2.87;;;25.80;68.30;;;;;;5011121;28;20193;-72
2023/03/17 07:30:56;;;;;;;10.90;2.80;;;25.70;69.00;;;;;;5012349;28;20256;-73
2023/03/17 07:33:24;;;;;;;10.10;2.70;;;25.70;69.70;;;;;;4998444;28;20197;-68
2023/03/17 07:35:52;;;;;;;7.50;2.93;;;25.60;69.50;;;;;;5001591;28;20182;-70
2023/03/17 07:38:20;;;;;;;10.17;2.80;;;25.50;70.20;;;;;;4994283;28;20178;-73
2023/03/17 07:40:48;;;;;;;11.30;2.67;;;25.60;70.40;;;;;;4993470;28;20178;-72
2023/03/17 07:43:17;;;;;;;10.47;2.80;;;25.70;70.10;;;;;;4998068;28;20228;-69
2023/03/17 07:45:45;;;;;;;9.73;2.97;;;25.70;69.80;;;;;;4992078;28;20277;-77
2023/03/17 07:48:13;;;;;;;11.40;3.07;;;25.70;69.70;;;;;;4998430;28;20178;-69
2023/03/17 07:50:41;;;;;;;5.53;2.30;;;25.60;69.60;;;;;;4987239;28;20621;-75
2023/03/17 07:53:09;;;;;;;9.13;2.80;;;25.60;69.70;;;;;;5006658;28;20173;-76
2023/03/17 07:55:37;;;;;;;10.60;2.83;;;25.60;70.00;;;;;;5000594;28;20206;-73
2023/03/17 07:58:06;;;;;;;7.90;2.43;;;25.60;70.00;;;;;;5001111;28;20662;-71
2023/03/17 08:00:33;;;;;;;10.70;3.17;;;25.50;70.00;;;;;;5015773;28;20578;-73
2023/03/17 08:03:01;;;;;;;10.37;2.87;;;25.30;70.30;;;;;;5016224;28;20303;-69
2023/03/17 08:05:28;;;;;;;11.53;2.60;;;25.30;70.50;;;;;;5016049;28;20232;-75
2023/03/17 08:07:55;;;;;;;10.23;2.70;;;25.30;70.90;;;;;;5016069;28;20177;-70
2023/03/17 08:10:23;;;;;;;16.50;2.70;;;25.20;71.40;;;;;;5015995;28;20651;-75
2023/03/17 08:12:52;;;;;;;8.37;2.30;;;25.20;71.80;;;;;;4991958;28;20218;-72
2023/03/17 08:15:20;;;;;;;12.20;2.80;;;25.20;71.70;;;;;;5016286;28;20181;-71
2023/03/17 08:17:48;;;;;;;10.90;3.13;;;25.10;71.80;;;;;;5015958;28;20177;-72
2023/03/17 08:20:15;;;;;;;12.53;2.70;;;25.00;72.10;;;;;;5015734;28;20678;-76
2023/03/17 08:22:42;;;;;;;8.80;2.83;;;24.90;72.50;;;;;;5016049;28;20232;-75
2023/03/17 08:25:11;;;;;;;6.53;2.20;;;25.00;72.80;;;;;;5016073;28;20493;-75
2023/03/17 08:27:38;;;;;;;18.43;3.00;;;24.90;72.90;;;;;;5015596;28;20536;-76
2023/03/17 08:30:06;;;;;;;8.53;2.80;;;24.90;73.20;;;;;;5005095;28;20178;-77
2023/03/17 08:32:34;;;;;;;10.83;2.73;;;24.90;73.50;;;;;;4997857;28;20189;-75
2023/03/17 08:35:01;;;;;;;11.70;2.73;;;24.80;73.90;;;;;;5015867;28;20181;-71
2023/03/17 08:37:28;;;;;;;12.57;2.70;;;24.80;74.40;;;;;;5000385;28;20563;-75
2023/03/17 08:39:56;;;;;;;10.33;2.20;;;24.80;74.70;;;;;;4996061;28;20656;-75
2023/03/17 08:42:24;;;;;;;10.93;2.77;;;24.80;74.60;;;;;;5014175;28;20636;-77
2023/03/17 08:44:51;;;;;;;10.77;2.93;;;24.80;74.50;;;;;;5015670;28;20204;-71
2023/03/17 08:47:18;;;;;;;10.13;2.47;;;24.80;74.10;;;;;;5014981;28;20181;-75
2023/03/17 08:49:46;;;;;;;10.33;2.60;;;24.70;74.40;;;;;;4981095;28;20638;-74
2023/03/17 08:52:13;;;;;;;18.23;2.80;;;24.70;74.20;;;;;;5015506;28;20181;-75
2023/03/17 08:54:41;;;;;;;10.63;2.70;;;24.70;74.50;;;;;;5015179;28;20593;-74
2023/03/17 08:57:08;;;;;;;12.53;3.00;;;24.70;74.50;;;;;;5013939;28;20182;-75
2023/03/17 08:59:36;;;;;;;12.97;3.10;;;24.70;74.50;;;;;;5015231;28;20173;-74
2023/03/17 09:02:03;;;;;;;8.80;3.00;;;24.60;74.80;;;;;;5014766;28;20255;-71
2023/03/17 09:04:31;;;;;;;11.83;2.50;;;24.60;74.70;;;;;;5014895;28;20220;-73
2023/03/17 09:06:58;;;;;;;13.40;3.13;;;24.60;74.90;;;;;;5007200;28;20181;-73
2023/03/17 09:09:26;;;;;;;15.53;2.83;;;24.60;75.00;;;;;;5014916;28;20555;-73
2023/03/17 09:11:54;;;;;;;11.83;3.40;;;24.60;75.20;;;;;;5014875;28;20216;-76
2023/03/17 09:14:23;;;;;;;10.63;2.63;;;24.60;75.30;;;;;;5014989;28;20319;-76
2023/03/17 09:16:51;;;;;;;15.83;2.90;;;24.50;75.20;;;;;;5014677;28;20182;-76
2023/03/17 09:19:19;;;;;;;13.03;3.30;;;24.50;75.30;;;;;;5014959;28;20299;-75
2023/03/17 09:21:46;;;;;;;10.60;2.70;;;24.50;75.50;;;;;;5014399;28;20192;-73
2023/03/17 09:24:14;;;;;;;9.20;2.73;;;24.50;75.60;;;;;;5014742;28;20209;-76
2023/03/17 09:26:41;;;;;;;15.87;3.50;;;24.40;75.80;;;;;;5014847;28;20177;-76
2023/03/17 09:29:08;;;;;;;11.90;2.67;;;24.40;75.80;;;;;;5014817;28;20181;-74
2023/03/17 09:31:36;;;;;;;16.10;2.73;;;24.40;75.90;;;;;;5014673;28;20165;-75
2023/03/17 09:34:04;;;;;;;12.97;2.43;;;24.40;75.90;;;;;;5014892;28;20178;-72
2023/03/17 09:36:32;;;;;;;11.80;3.00;;;24.30;76.00;;;;;;5014301;28;20180;-75
2023/03/17 09:39:00;;;;;;;14.30;2.40;;;24.30;76.10;;;;;;5014680;28;20234;-73
2023/03/17 09:41:37;;;;;;;13.10;3.57;;;24.30;76.20;;;;;;5014164;28;20586;-76
2023/03/17 09:44:08;;;;;;;13.00;2.93;;;24.30;76.50;;;;;;5014534;28;20568;-69
2023/03/17 09:46:38;;;;;;;9.33;2.43;;;24.30;76.50;;;;;;5014252;28;20185;-72
2023/03/17 09:49:13;;;;;;;15.77;3.27;;;24.30;76.80;;;;;;5014048;28;20525;-68
2023/03/17 09:51:43;;;;;;;9.53;3.00;;;24.30;76.80;;;;;;5013808;28;20169;-67
2023/03/17 09:54:19;;;;;;;15.07;2.80;;;24.30;76.80;;;;;;5014132;28;20679;-71
2023/03/17 09:56:51;;;;;;;14.30;3.03;;;24.30;77.00;;;;;;5013479;28;20271;-69
2023/03/17 09:59:42;;;;;;;10.03;2.27;;;24.30;77.10;;;;;;5013837;28;20185;-68
2023/03/17 10:02:30;;;;;;;9.87;3.03;;;24.20;77.30;;;;;;4974841;28;20178;-67
2023/03/17 10:04:59;;;;;;;10.37;3.00;;;24.20;77.50;;;;;;4987185;28;20211;-68
2023/03/17 10:07:41;;;;;;;10.93;2.97;;;24.20;77.50;;;;;;5013713;28;20541;-73
2023/03/17 10:10:28;;;;;;;13.07;3.03;;;24.10;77.60;;;;;;4996456;28;20235;-74
2023/03/17 10:13:17;;;;;;;15.73;3.80;;;24.10;77.80;;;;;;4993228;28;20246;-75
2023/03/17 10:16:17;;;;;;;13.97;3.07;;;24.10;78.00;;;;;;4996855;28;20185;-76
2023/03/17 10:18:55;;;;;;;9.60;2.70;;;24.10;78.20;;;;;;5006459;28;20232;-74
2023/03/17 10:21:30;;;;;;;11.27;3.00;;;24.10;78.40;;;;;;5013247;28;20177;-76
2023/03/17 10:23:58;;;;;;;12.60;3.13;;;24.10;78.60;;;;;;5013198;28;20683;-72
2023/03/17 10:26:40;;;;;;;11.50;3.00;;;24.10;78.60;;;;;;5013786;28;20249;-73
2023/03/17 10:29:26;;;;;;;15.67;3.03;;;24.00;78.60;;;;;;4993876;28;20203;-72
2023/03/17 10:31:57;;;;;;;11.97;3.30;;;24.00;78.70;;;;;;5013670;28;20173;-74
2023/03/17 10:34:24;;;;;;;13.47;3.37;;;24.00;78.60;;;;;;5012982;28;20165;-75
2023/03/17 10:36:59;;;;;;;13.67;3.33;;;24.00;78.70;;;;;;5013287;28;20188;-75
2023/03/17 10:39:28;;;;;;;9.70;3.23;;;24.00;78.90;;;;;;5012737;28;20179;-74
2023/03/17 10:42:14;;;;;;;13.30;3.00;;;24.00;78.80;;;;;;5013324;28;20248;-75
2023/03/17 10:44:50;;;;;;;14.43;3.30;;;24.00;79.00;;;;;;5002330;28;20218;-72
2023/03/17 10:47:40;;;;;;;13.27;3.20;;;24.00;79.20;;;;;;4999793;28;20188;-74
2023/03/17 10:50:32;;;;;;;11.93;3.20;;;24.00;79.20;;;;;;4983361;28;20664;-75
2023/03/17 10:53:07;;;;;;;16.10;3.33;;;23.90;79.30;;;;;;4990302;28;20174;-74
2023/03/17 10:55:43;;;;;;;14.03;3.30;;;23.90;79.30;;;;;;5001270;28;20595;-75
2023/03/17 10:58:14;;;;;;;8.47;2.80;;;23.90;79.30;;;;;;5010311;28;20264;-75
2023/03/17 11:00:55;;;;;;;17.03;3.33;;;23.90;79.40;;;;;;4991581;28;20204;-71
2023/03/17 11:03:30;;;;;;;11.43;3.20;;;23.90;79.40;;;;;;5003643;28;20673;-75
2023/03/17 11:06:05;;;;;;;12.77;3.30;;;23.90;79.30;;;;;;4993938;28;20643;-72
2023/03/17 11:08:38;;;;;;;12.73;3.20;;;23.80;79.40;;;;;;4991851;28;20181;-68
2023/03/17 11:11:21;;;;;;;12.40;3.00;;;23.90;79.40;;;;;;4988628;28;20185;-70
2023/03/17 11:13:48;;;;;;;10.33;3.07;;;23.80;79.20;;;;;;4993532;28;20317;-69
2023/03/17 11:16:23;;;;;;;17.33;3.20;;;23.80;79.30;;;;;;5005978;28;20186;-68
2023/03/17 11:19:01;;;;;;;18.67;4.10;;;23.80;79.20;;;;;;4998051;28;20662;-69
2023/03/17 11:21:34;;;;;;;12.30;2.83;;;23.80;79.60;;;;;;4997771;28;20177;-68
2023/03/17 11:24:15;;;;;;;12.73;3.53;;;23.80;79.70;;;;;;4998417;28;20213;-74
2023/03/17 11:27:01;;;;;;;10.40;3.40;;;23.80;79.70;;;;;;4989272;28;20182;-69
2023/03/17 11:29:36;;;;;;;11.10;3.40;;;23.80;80.00;;;;;;5007772;28;20528;-69
2023/03/17 11:32:35;;;;;;;13.67;3.40;;;23.70;80.10;;;;;;5004206;28;20215;-70
2023/03/17 11:35:18;;;;;;;12.67;3.10;;;23.70;80.40;;;;;;4991896;28;20185;-69
2023/03/17 11:37:55;;;;;;;18.27;3.20;;;23.60;80.40;;;;;;5012407;28;20201;-69
2023/03/17 11:41:09;;;;;;;16.10;4.13;;;23.70;80.50;;;;;;5009883;28;20533;-71
2023/03/17 11:43:58;;;;;;;14.80;3.77;;;23.70;80.60;;;;;;4951424;28;20362;-75
2023/03/17 11:46:31;;;;;;;13.57;3.93;;;23.70;80.70;;;;;;5011932;28;20181;-69
2023/03/17 11:49:36;;;;;;;16.17;3.53;;;23.70;80.80;;;;;;5003056;28;20166;-74
2023/03/17 11:52:20;;;;;;;15.43;3.50;;;23.70;80.80;;;;;;4876015;29;20190;-74
2023/03/17 11:55:03;;;;;;;15.47;4.20;;;23.70;80.80;;;;;;5003876;28;20227;-75
2023/03/17 11:57:43;;;;;;;15.77;4.07;;;23.70;80.70;;;;;;5011312;28;20636;-75
2023/03/17 12:00:33;;;;;;;16.57;3.30;;;23.70;81.00;;;;;;5005789;28;20185;-72
2023/03/17 12:03:13;;;;;;;16.07;3.83;;;23.60;81.10;;;;;;5011732;28;20626;-68
2023/03/17 12:05:41;;;;;;;16.90;3.73;;;23.60;81.30;;;;;;5011133;28;20647;-69
2023/03/17 12:08:28;;;;;;;11.90;3.80;;;23.70;81.20;;;;;;5011330;28;20702;-68
2023/03/17 12:10:59;;;;;;;11.97;3.20;;;23.60;81.30;;;;;;5001047;28;20280;-72
2023/03/17 12:14:02;;;;;;;14.47;3.57;;;23.60;81.30;;;;;;4993299;28;20361;-73
2023/03/17 12:16:40;;;;;;;15.53;3.83;;;23.60;81.60;;;;;;4975299;28;20202;-69
2023/03/17 12:19:24;;;;;;;14.90;4.00;;;23.60;81.80;;;;;;5002345;28;20208;-74
2023/03/17 12:22:07;;;;;;;15.03;4.07;;;23.50;81.80;;;;;;4991932;28;20196;-71
2023/03/17 12:24:46;;;;;;;13.73;3.70;;;23.50;82.10;;;;;;4991338;28;20300;-71
2023/03/17 12:27:29;;;;;;;13.27;3.80;;;23.50;82.20;;;;;;4997524;28;20276;-69
2023/03/17 12:30:01;;;;;;;16.00;4.67;;;23.50;82.30;;;;;;5001728;28;20186;-68
2023/03/17 12:32:57;;;;;;;10.10;3.63;;;23.50;82.40;;;;;;5013872;28;20178;-72
2023/03/17 12:35:30;;;;;;;13.20;3.50;;;23.50;82.60;;;;;;5014851;28;20208;-74
2023/03/17 12:38:01;;;;;;;15.03;4.17;;;23.40;82.60;;;;;;5015702;28;20177;-75
2023/03/17 12:40:41;;;;;;;11.03;3.40;;;23.40;82.80;;;;;;5015930;28;20269;-75
2023/03/17 12:43:14;;;;;;;15.70;3.93;;;23.40;83.00;;;;;;5002836;28;20213;-69
2023/03/17 12:46:15;;;;;;;9.93;3.73;;;23.40;83.10;;;;;;4994253;28;20273;-73
2023/03/17 12:48:47;;;;;;;12.37;3.63;;;23.30;83.30;;;;;;4995866;28;20182;-74
2023/03/17 12:51:36;;;;;;;15.00;3.47;;;23.30;83.40;;;;;;4995789;28;20178;-74
2023/03/17 12:54:04;;;;;;;13.33;4.13;;;23.30;83.50;;;;;;4983326;28;20213;-74
2023/03/17 12:56:33;;;;;;;17.80;3.60;;;23.30;83.70;;;;;;4995615;28;20657;-71
2023/03/17 12:59:10;;;;;;;10.23;3.70;;;23.30;83.70;;;;;;4993951;28;20216;-71
2023/03/17 13:01:45;;;;;;;19.40;4.30;;;23.40;83.60;;;;;;4995135;28;20232;-71